Time;durP1;ratioP1;P1;durP2;ratioP2;P2;SDS_P1;SDS_P2;PMS_P1;PMS_P2;Temp;Humidity;BMP_temperature;BMP_pressure;BME280_temperature;BME280_humidity;BME280_pressure;Samples;Min_cycle;Max_cycle;Signal;HPM_P1;HPM_P2
2022/01/05 00:01:19;;;;;;;12.13;7.88;;;;;;;10.75;84.57;99036.06;5080591;28;20103;-73
2022/01/05 00:03:44;;;;;;;12.68;8.32;;;;;;;10.83;83.35;99021.81;5073339;28;20024;-73
2022/01/05 00:06:10;;;;;;;13.00;8.05;;;;;;;10.74;83.59;99015.59;5073743;28;20040;-73
2022/01/05 00:08:35;;;;;;;11.10;7.13;;;;;;;10.74;84.21;99023.66;5077042;28;20084;-73
2022/01/05 00:11:01;;;;;;;11.23;7.22;;;;;;;10.77;84.22;99023.31;5074344;28;20399;-74
2022/01/05 00:13:28;;;;;;;13.35;7.22;;;;;;;10.69;84.28;99025.16;5075505;28;20157;-74
2022/01/05 00:15:54;;;;;;;11.57;7.32;;;;;;;10.88;82.84;99022.16;5074193;28;20535;-74
2022/01/05 00:18:19;;;;;;;9.27;6.65;;;;;;;10.85;83.63;99028.69;5066772;28;20032;-74
2022/01/05 00:20:45;;;;;;;11.43;7.68;;;;;;;10.77;83.41;99015.28;5081437;28;20076;-74
2022/01/05 00:23:10;;;;;;;9.77;6.22;;;;;;;10.81;83.88;99021.16;5067736;28;20033;-73
2022/01/05 00:25:36;;;;;;;12.45;7.00;;;;;;;10.79;83.33;99023.16;5057216;28;20418;-73
2022/01/05 00:28:01;;;;;;;12.77;7.35;;;;;;;10.77;83.49;99012.59;5071044;28;20437;-73
2022/01/05 00:30:27;;;;;;;9.85;6.85;;;;;;;10.73;83.71;99003.22;5078956;28;20032;-73
2022/01/05 00:32:53;;;;;;;9.20;6.43;;;;;;;10.80;83.13;99022.97;5070018;28;20024;-74
2022/01/05 00:35:19;;;;;;;8.88;6.38;;;;;;;10.78;83.17;99008.06;5081367;28;20051;-74
2022/01/05 00:37:44;;;;;;;10.68;7.20;;;;;;;10.84;82.09;99007.41;5079324;28;20681;-73
2022/01/05 00:40:10;;;;;;;10.75;6.50;;;;;;;10.79;82.63;99013.28;5074041;28;20028;-73
2022/01/05 00:42:36;;;;;;;10.18;6.75;;;;;;;10.77;82.04;98995.69;5078093;28;20036;-72
2022/01/05 00:45:02;;;;;;;11.98;7.38;;;;;;;10.84;81.75;99012.78;5085657;28;20031;-74
2022/01/05 00:47:27;;;;;;;11.35;7.25;;;;;;;10.83;82.22;99009.25;5077795;28;20028;-73
2022/01/05 00:49:53;;;;;;;12.55;7.40;;;;;;;10.74;82.20;99002.19;5082661;28;20089;-73
2022/01/05 00:52:19;;;;;;;11.27;7.03;;;;;;;10.72;82.15;98993.50;5078172;28;20028;-73
2022/01/05 00:54:45;;;;;;;12.40;8.10;;;;;;;10.71;82.34;99012.44;5077956;28;20380;-73
2022/01/05 00:57:11;;;;;;;12.27;7.43;;;;;;;10.75;82.70;99013.78;5082396;28;20020;-74
2022/01/05 00:59:37;;;;;;;14.48;7.97;;;;;;;10.82;82.01;99015.63;5072757;28;20039;-74
2022/01/05 01:02:02;;;;;;;13.13;7.40;;;;;;;10.73;81.96;99011.25;5077412;28;20033;-73
2022/01/05 01:04:30;;;;;;;11.77;7.43;;;;;;;10.76;81.58;99015.44;5085149;28;20028;-73
2022/01/05 01:06:56;;;;;;;10.50;7.50;;;;;;;10.74;81.92;99018.28;5070262;28;20039;-73
2022/01/05 01:09:21;;;;;;;11.32;7.28;;;;;;;10.75;81.94;99006.56;5081309;28;20384;-73
2022/01/05 01:11:47;;;;;;;12.55;7.28;;;;;;;10.70;82.47;99019.63;5066059;28;20059;-73
2022/01/05 01:14:13;;;;;;;13.07;7.78;;;;;;;10.61;82.10;99009.09;5081496;28;20458;-73
2022/01/05 01:16:38;;;;;;;11.10;7.35;;;;;;;10.58;82.12;99004.06;5074429;28;20029;-74
2022/01/05 01:19:04;;;;;;;12.50;7.72;;;;;;;10.63;82.16;99007.91;5084872;28;20046;-74
2022/01/05 01:21:29;;;;;;;13.48;7.95;;;;;;;10.77;81.36;99012.59;5073021;28;20090;-73
2022/01/05 01:23:55;;;;;;;13.48;7.43;;;;;;;10.71;80.80;98999.84;5083803;28;20040;-74
2022/01/05 01:26:23;;;;;;;11.27;7.25;;;;;;;10.69;81.08;99004.56;5083078;28;20039;-73
2022/01/05 01:28:48;;;;;;;9.55;6.90;;;;;;;10.66;81.79;99004.88;5079521;28;20392;-73
2022/01/05 01:31:14;;;;;;;10.93;7.28;;;;;;;10.66;81.73;99006.72;5072132;28;20024;-73
2022/01/05 01:33:39;;;;;;;10.15;6.47;;;;;;;10.68;81.67;98999.38;5080006;28;20036;-73
2022/01/05 01:36:05;;;;;;;9.43;6.82;;;;;;;10.62;81.52;98992.84;5084684;28;20067;-74
2022/01/05 01:38:30;;;;;;;11.35;6.60;;;;;;;10.56;81.37;98981.91;5076276;28;20029;-74
2022/01/05 01:40:56;;;;;;;9.02;6.72;;;;;;;10.58;81.69;98987.97;5069684;28;20035;-73
2022/01/05 01:43:21;;;;;;;10.93;7.05;;;;;;;10.62;80.84;98992.84;5073048;28;20089;-74
2022/01/05 01:45:47;;;;;;;12.52;7.65;;;;;;;10.55;80.86;98975.72;5082132;28;20034;-74
2022/01/05 01:48:12;;;;;;;12.15;7.05;;;;;;;10.64;80.66;98984.63;5078842;28;20730;-73
2022/01/05 01:50:38;;;;;;;12.48;6.95;;;;;;;10.56;81.07;98985.44;5078873;28;20067;-73
2022/01/05 01:53:03;;;;;;;13.13;7.30;;;;;;;10.51;81.05;98969.00;5078239;28;20468;-73
2022/01/05 01:55:28;;;;;;;11.05;6.70;;;;;;;10.47;81.23;98970.38;5088547;28;20028;-74
2022/01/05 01:57:55;;;;;;;12.30;6.70;;;;;;;10.49;81.10;98978.25;5077802;28;20029;-72
2022/01/05 02:00:22;;;;;;;11.23;6.55;;;;;;;10.45;81.44;98969.69;5060292;28;20052;-73
2022/01/05 02:02:47;;;;;;;11.93;6.75;;;;;;;10.45;81.78;98975.03;5068594;28;20025;-74
2022/01/05 02:05:13;;;;;;;11.05;6.90;;;;;;;10.44;81.68;98968.00;5082141;28;20085;-73
2022/01/05 02:07:41;;;;;;;9.82;6.57;;;;;;;10.35;81.74;98949.44;5083472;28;20144;-73
2022/01/05 02:10:10;;;;;;;12.10;7.63;;;;;;;10.41;80.65;98952.25;5078232;28;20518;-73
2022/01/05 02:12:36;;;;;;;10.20;5.70;;;;;;;10.45;81.17;98953.59;5055422;28;20040;-74
2022/01/05 02:15:02;;;;;;;10.20;6.70;;;;;;;10.45;80.71;98958.16;5075776;28;20024;-73
2022/01/05 02:17:44;;;;;;;10.57;6.40;;;;;;;10.42;80.74;98961.97;5081656;28;20033;-74
2022/01/05 02:20:23;;;;;;;9.32;6.35;;;;;;;10.39;81.07;98961.47;5070644;28;20027;-74
2022/01/05 02:22:49;;;;;;;9.85;6.20;;;;;;;10.37;81.19;98958.97;5060543;28;20372;-73
2022/01/05 02:25:15;;;;;;;8.77;5.85;;;;;;;10.38;80.72;98952.59;5078257;28;20024;-74
2022/01/05 02:27:44;;;;;;;9.90;6.22;;;;;;;10.35;81.12;98955.59;5079290;28;20031;-74
2022/01/05 02:30:12;;;;;;;9.73;6.13;;;;;;;10.34;80.79;98947.72;5077226;28;20028;-74
2022/01/05 02:32:38;;;;;;;8.23;6.03;;;;;;;10.34;80.69;98953.94;5082453;28;20042;-74
2022/01/05 02:35:04;;;;;;;11.45;6.20;;;;;;;10.32;80.36;98947.09;5083472;28;20028;-74
2022/01/05 02:37:30;;;;;;;7.75;5.32;;;;;;;10.19;80.55;98930.66;5082120;28;20036;-74
2022/01/05 02:39:55;;;;;;;9.00;5.45;;;;;;;10.26;81.18;98950.41;5079643;28;20145;-74
2022/01/05 02:42:28;;;;;;;8.43;5.70;;;;;;;10.30;80.36;98943.72;5082964;28;20027;-74
2022/01/05 02:44:58;;;;;;;9.90;6.07;;;;;;;10.25;80.54;98941.53;5077915;28;20103;-74
2022/01/05 02:47:23;;;;;;;9.48;5.72;;;;;;;10.30;79.94;98931.16;5077955;28;20058;-74
2022/01/05 02:49:49;;;;;;;10.10;5.32;;;;;;;10.29;79.81;98937.50;5084927;28;20145;-72
2022/01/05 02:52:15;;;;;;;10.00;5.50;;;;;;;10.32;79.47;98939.03;5081736;28;20044;-73
2022/01/05 02:54:44;;;;;;;7.05;5.25;;;;;;;10.32;79.82;98937.19;5070723;28;20107;-73
2022/01/05 02:57:09;;;;;;;8.50;5.30;;;;;;;10.30;79.83;98935.69;5084528;28;20103;-73
2022/01/05 02:59:35;;;;;;;10.00;5.03;;;;;;;10.32;79.63;98933.69;5081225;28;20507;-73
2022/01/05 03:02:00;;;;;;;9.77;5.30;;;;;;;10.25;79.89;98932.69;5080049;28;20076;-73
2022/01/05 03:04:28;;;;;;;7.88;5.15;;;;;;;10.22;79.98;98924.97;5068176;28;20023;-73
2022/01/05 03:06:54;;;;;;;8.05;5.25;;;;;;;10.27;79.00;98933.34;5079655;28;20016;-72
2022/01/05 03:09:19;;;;;;;7.30;5.00;;;;;;;10.25;79.28;98919.28;5072361;28;20032;-72
2022/01/05 03:11:45;;;;;;;7.30;5.22;;;;;;;10.24;78.84;98917.59;5084854;28;20144;-72
2022/01/05 03:14:10;;;;;;;8.40;4.93;;;;;;;10.16;79.53;98910.38;5080324;28;20016;-73
2022/01/05 03:16:36;;;;;;;6.95;5.20;;;;;;;10.20;79.43;98918.94;5070535;28;20091;-72
2022/01/05 03:19:02;;;;;;;8.15;4.80;;;;;;;10.22;79.42;98920.44;5071714;28;20028;-73
2022/01/05 03:21:27;;;;;;;7.93;4.93;;;;;;;10.19;79.57;98922.63;5079368;28;20038;-72
2022/01/05 03:23:53;;;;;;;6.68;4.30;;;;;;;10.16;79.58;98918.41;5079009;28;20024;-72
2022/01/05 03:26:18;;;;;;;7.53;4.90;;;;;;;10.29;78.68;98925.97;5071285;28;20024;-73
2022/01/05 03:28:44;;;;;;;8.65;5.22;;;;;;;10.15;78.89;98915.91;5070587;28;20032;-73
2022/01/05 03:31:09;;;;;;;8.65;4.85;;;;;;;10.20;79.21;98929.66;5081289;28;20027;-73
2022/01/05 03:33:35;;;;;;;8.95;5.47;;;;;;;10.17;79.31;98921.94;5078851;28;20035;-74
2022/01/05 03:36:00;;;;;;;8.60;4.25;;;;;;;10.20;78.90;98925.13;5065450;28;20027;-73
2022/01/05 03:38:28;;;;;;;7.10;4.57;;;;;;;10.19;78.90;98927.97;5063324;28;20550;-73
2022/01/05 03:40:54;;;;;;;6.35;4.22;;;;;;;10.16;79.39;98915.72;5078559;28;20046;-73
2022/01/05 03:43:20;;;;;;;7.63;3.80;;;;;;;10.17;79.47;98924.63;5078809;28;20081;-73
2022/01/05 03:45:45;;;;;;;10.57;4.45;;;;;;;10.17;79.44;98917.44;5072709;28;20028;-73
2022/01/05 03:48:15;;;;;;;7.30;4.18;;;;;;;10.17;79.45;98921.94;5086267;28;20103;-73
2022/01/05 03:50:41;;;;;;;7.65;4.55;;;;;;;10.19;78.74;98917.25;5068574;28;20500;-73
2022/01/05 03:53:08;;;;;;;9.68;4.60;;;;;;;10.21;79.05;98917.91;5077074;28;20084;-73
2022/01/05 03:55:34;;;;;;;7.88;4.60;;;;;;;10.19;79.30;98906.56;5062806;28;20530;-72
2022/01/05 03:58:01;;;;;;;8.15;4.55;;;;;;;10.17;79.77;98908.53;5078949;28;20414;-73
2022/01/05 04:00:29;;;;;;;7.53;4.15;;;;;;;10.14;79.50;98912.41;5071203;28;20028;-73
2022/01/05 04:02:58;;;;;;;9.10;4.47;;;;;;;10.09;79.54;98892.47;5073456;28;20028;-73
2022/01/05 04:05:24;;;;;;;5.95;4.20;;;;;;;10.07;79.61;98895.31;5076318;28;20032;-72
2022/01/05 04:07:50;;;;;;;6.03;3.83;;;;;;;10.08;79.86;98902.34;5076002;28;20020;-68
2022/01/05 04:10:16;;;;;;;4.88;3.75;;;;;;;10.09;80.04;98895.16;5071955;28;20032;-68
2022/01/05 04:12:42;;;;;;;6.10;3.95;;;;;;;10.06;80.10;98896.31;5074690;28;20053;-68
2022/01/05 04:15:07;;;;;;;10.20;4.25;;;;;;;10.07;80.20;98897.16;5075290;28;20029;-69
2022/01/05 04:17:33;;;;;;;5.88;4.20;;;;;;;10.06;80.54;98895.44;5081638;28;20057;-69
2022/01/05 04:19:58;;;;;;;7.05;3.83;;;;;;;10.02;80.54;98892.25;5078081;28;20113;-68
2022/01/05 04:22:24;;;;;;;5.43;3.78;;;;;;;10.00;80.64;98886.22;5081254;28;20032;-69
2022/01/05 04:24:50;;;;;;;7.05;3.70;;;;;;;9.99;80.31;98887.22;5078451;28;20383;-67
2022/01/05 04:27:18;;;;;;;6.22;4.20;;;;;;;10.07;80.53;98889.13;5078261;28;20024;-68
2022/01/05 04:29:44;;;;;;;8.25;4.35;;;;;;;10.13;79.66;98894.63;5068975;28;20060;-69
2022/01/05 04:32:09;;;;;;;6.38;3.97;;;;;;;10.16;80.09;98901.53;5070237;28;20075;-68
2022/01/05 04:34:35;;;;;;;8.15;3.55;;;;;;;10.06;80.50;98887.41;5070456;28;20028;-69
2022/01/05 04:37:01;;;;;;;5.90;3.88;;;;;;;10.15;79.79;98889.97;5079663;28;20119;-69
2022/01/05 04:39:26;;;;;;;6.43;4.10;;;;;;;10.19;79.66;98891.28;5086788;28;20070;-69
2022/01/05 04:41:51;;;;;;;6.07;3.83;;;;;;;10.12;79.97;98881.44;5088499;28;20047;-69
2022/01/05 04:44:17;;;;;;;6.97;4.30;;;;;;;10.20;80.05;98890.31;5079298;28;20047;-69
2022/01/05 04:46:42;;;;;;;5.88;3.60;;;;;;;10.13;79.96;98878.56;5082487;28;20051;-68
2022/01/05 04:49:08;;;;;;;6.13;3.85;;;;;;;10.20;79.79;98884.94;5080300;28;20023;-69
2022/01/05 04:51:33;;;;;;;7.78;4.00;;;;;;;10.27;79.39;98888.63;5080895;28;20721;-69
2022/01/05 04:53:59;;;;;;;6.35;4.05;;;;;;;10.27;78.90;98885.94;5076703;28;20020;-69
2022/01/05 04:56:24;;;;;;;7.80;4.50;;;;;;;10.31;78.42;98892.63;5077713;28;20097;-68
2022/01/05 04:58:50;;;;;;;6.63;4.28;;;;;;;10.35;78.18;98895.84;5081428;28;20125;-68
2022/01/05 05:01:15;;;;;;;7.60;4.38;;;;;;;10.33;77.71;98890.66;5069746;28;20035;-69
2022/01/05 05:03:40;;;;;;;8.10;4.30;;;;;;;10.31;77.79;98881.06;5080030;28;20023;-68
2022/01/05 05:06:06;;;;;;;4.55;3.58;;;;;;;10.31;78.41;98892.63;5078091;28;20055;-69
2022/01/05 05:08:31;;;;;;;7.15;4.45;;;;;;;10.25;77.78;98876.41;5071397;28;20040;-69
2022/01/05 05:10:57;;;;;;;6.55;4.13;;;;;;;10.33;77.89;98897.84;5073962;28;20078;-69
2022/01/05 05:13:22;;;;;;;7.13;4.15;;;;;;;10.32;77.75;98886.25;5082186;28;20051;-69
2022/01/05 05:15:48;;;;;;;10.10;4.72;;;;;;;10.31;77.38;98884.59;5069407;28;20020;-68
2022/01/05 05:18:13;;;;;;;10.50;4.63;;;;;;;10.22;77.94;98869.53;5076634;28;20032;-69
2022/01/05 05:20:40;;;;;;;7.35;4.57;;;;;;;10.30;77.76;98885.63;5083466;28;20024;-69
2022/01/05 05:23:06;;;;;;;6.75;4.32;;;;;;;10.30;78.05;98874.06;5081473;28;20028;-69
2022/01/05 05:25:32;;;;;;;8.15;4.95;;;;;;;10.28;77.99;98879.56;5079713;28;20046;-67
2022/01/05 05:27:58;;;;;;;7.32;4.28;;;;;;;10.31;77.77;98886.44;5077907;28;20103;-69
2022/01/05 05:30:23;;;;;;;7.70;5.05;;;;;;;10.28;78.24;98884.94;5075929;28;20480;-69
2022/01/05 05:32:49;;;;;;;7.63;4.50;;;;;;;10.27;77.86;98883.28;5077226;28;20564;-69
2022/01/05 05:35:14;;;;;;;8.52;4.85;;;;;;;10.27;78.01;98875.22;5079184;28;20029;-70
2022/01/05 05:37:40;;;;;;;7.20;4.90;;;;;;;10.26;78.71;98886.97;5077831;28;20031;-67
2022/01/05 05:40:06;;;;;;;9.50;5.45;;;;;;;10.23;78.25;98884.63;5083306;28;20047;-69
2022/01/05 05:42:32;;;;;;;7.82;4.57;;;;;;;10.27;78.28;98882.41;5080771;28;20502;-70
2022/01/05 05:44:57;;;;;;;7.78;5.20;;;;;;;10.29;78.36;98889.28;5081091;28;20123;-68
2022/01/05 05:47:23;;;;;;;7.60;4.78;;;;;;;10.28;78.07;98882.25;5086326;28;20032;-69
2022/01/05 05:49:48;;;;;;;7.65;4.78;;;;;;;10.26;78.54;98883.44;5085280;28;20040;-69
2022/01/05 05:52:15;;;;;;;8.65;5.10;;;;;;;10.18;78.48;98872.69;5075080;28;20028;-67
2022/01/05 05:54:41;;;;;;;7.63;5.10;;;;;;;10.23;78.31;98884.63;5079605;28;20033;-69
2022/01/05 05:57:07;;;;;;;7.03;4.75;;;;;;;10.27;78.47;98885.94;5086812;28;20028;-69
2022/01/05 05:59:32;;;;;;;7.93;4.75;;;;;;;10.27;78.22;98885.94;5077791;28;20031;-68
2022/01/05 06:02:01;;;;;;;11.23;4.85;;;;;;;10.16;78.83;98864.00;5076212;28;20103;-68
2022/01/05 06:04:26;;;;;;;8.68;5.30;;;;;;;10.25;78.83;98893.31;5070776;28;20036;-70
2022/01/05 06:06:52;;;;;;;7.47;5.15;;;;;;;10.16;79.14;98883.59;5082806;28;20024;-69
2022/01/05 06:09:18;;;;;;;8.55;5.13;;;;;;;10.25;79.24;98905.88;5083512;28;20040;-69
2022/01/05 06:11:50;;;;;;;7.13;4.72;;;;;;;10.25;79.28;98897.84;5078844;28;20028;-68
2022/01/05 06:14:22;;;;;;;6.90;4.40;;;;;;;10.22;79.22;98901.69;5078556;28;20028;-68
2022/01/05 06:16:47;;;;;;;12.15;5.57;;;;;;;10.18;79.11;98886.94;5076987;28;20399;-68
2022/01/05 06:19:13;;;;;;;8.02;5.15;;;;;;;10.30;78.75;98907.06;5076526;28;20024;-69
2022/01/05 06:21:41;;;;;;;11.80;5.13;;;;;;;10.35;78.81;98910.03;5083282;28;20042;-69
2022/01/05 06:24:06;;;;;;;8.23;4.72;;;;;;;10.25;78.92;98901.34;5082679;28;20170;-68
2022/01/05 06:26:32;;;;;;;9.95;5.20;;;;;;;10.23;78.95;98898.00;5068384;28;20531;-69
2022/01/05 06:28:57;;;;;;;7.90;5.35;;;;;;;10.35;78.85;98911.91;5079986;28;20094;-68
2022/01/05 06:31:23;;;;;;;8.13;5.10;;;;;;;10.32;78.88;98909.56;5080646;28;20071;-69
2022/01/05 06:33:48;;;;;;;9.52;5.88;;;;;;;10.24;79.00;98897.00;5077660;28;20079;-68
2022/01/05 06:36:16;;;;;;;13.85;6.18;;;;;;;10.34;78.72;98912.91;5080680;28;20028;-69
2022/01/05 06:38:42;;;;;;;12.75;6.05;;;;;;;10.40;77.98;98905.03;5078979;28;20028;-68
2022/01/05 06:41:07;;;;;;;11.00;5.72;;;;;;;10.36;78.29;98905.53;5079205;28;20031;-70
2022/01/05 06:43:35;;;;;;;11.88;5.88;;;;;;;10.38;78.33;98915.06;5077856;28;20036;-68
2022/01/05 06:46:01;;;;;;;8.50;5.60;;;;;;;10.40;78.06;98918.44;5079803;28;20608;-68
2022/01/05 06:48:29;;;;;;;9.15;5.40;;;;;;;10.38;78.77;98925.78;5076996;28;20036;-69
2022/01/05 06:50:57;;;;;;;10.00;6.32;;;;;;;10.40;78.64;98922.94;5083471;28;20036;-68
2022/01/05 06:53:22;;;;;;;10.32;6.00;;;;;;;10.28;77.78;98902.84;5076731;28;20028;-69
2022/01/05 06:55:50;;;;;;;8.60;5.88;;;;;;;10.39;78.39;98914.09;5073465;28;20028;-68
2022/01/05 06:58:18;;;;;;;9.77;4.85;;;;;;;10.43;78.33;98927.97;5075938;28;20102;-68
2022/01/05 07:00:43;;;;;;;7.78;5.30;;;;;;;10.41;78.54;98913.91;5076901;28;20027;-68
2022/01/05 07:03:12;;;;;;;8.68;5.60;;;;;;;10.41;78.55;98916.56;5077641;28;20032;-68
2022/01/05 07:05:44;;;;;;;7.78;5.28;;;;;;;10.44;78.62;98921.59;5077473;28;20468;-68
2022/01/05 07:08:10;;;;;;;9.73;6.25;;;;;;;10.41;77.86;98901.34;5077563;28;20038;-69
2022/01/05 07:10:35;;;;;;;8.15;5.45;;;;;;;10.49;78.19;98917.44;5080618;28;20476;-68
2022/01/05 07:13:03;;;;;;;9.80;5.50;;;;;;;10.43;78.56;98907.38;5076960;28;20040;-68
2022/01/05 07:15:28;;;;;;;8.02;5.57;;;;;;;10.53;77.52;98901.84;5081150;28;20368;-69
2022/01/05 07:17:54;;;;;;;9.48;5.65;;;;;;;10.49;77.69;98903.19;5083382;28;20031;-67
2022/01/05 07:20:19;;;;;;;9.90;5.68;;;;;;;10.55;77.81;98908.69;5085368;28;20530;-68
2022/01/05 07:22:45;;;;;;;11.60;5.78;;;;;;;10.54;78.27;98908.88;5073589;28;20035;-68
2022/01/05 07:25:10;;;;;;;8.13;5.75;;;;;;;10.64;77.45;98920.28;5073609;28;20360;-68
2022/01/05 07:27:37;;;;;;;13.63;5.50;;;;;;;10.64;77.54;98909.56;5074861;28;20024;-69
2022/01/05 07:30:04;;;;;;;10.57;5.72;;;;;;;10.69;78.00;98897.31;5081355;28;20036;-68
2022/01/05 07:32:30;;;;;;;10.07;5.47;;;;;;;10.70;77.90;98903.47;5073248;28;20028;-67
2022/01/05 07:34:58;;;;;;;11.07;6.30;;;;;;;10.64;78.13;98899.66;5081171;28;20098;-69
2022/01/05 07:37:24;;;;;;;12.02;6.75;;;;;;;10.64;78.04;98899.66;5083907;28;20512;-69
2022/01/05 07:39:50;;;;;;;8.02;5.13;;;;;;;10.76;78.11;98906.34;5080823;28;20204;-68
2022/01/05 07:42:15;;;;;;;7.97;4.90;;;;;;;10.74;78.29;98902.16;5058019;28;20036;-68
2022/01/05 07:44:41;;;;;;;7.82;5.32;;;;;;;10.77;78.10;98894.59;5074652;28;20034;-68
2022/01/05 07:47:07;;;;;;;8.73;5.25;;;;;;;10.76;78.12;98892.09;5088668;28;20490;-68
2022/01/05 07:49:34;;;;;;;9.50;5.75;;;;;;;10.86;78.45;98900.78;5086077;28;20470;-69
2022/01/05 07:51:59;;;;;;;8.40;5.40;;;;;;;10.84;78.60;98909.00;5081827;28;20032;-68
2022/01/05 07:54:25;;;;;;;8.60;5.80;;;;;;;10.87;78.22;98905.97;5076914;28;20112;-68
2022/01/05 07:56:53;;;;;;;7.70;5.30;;;;;;;10.85;77.86;98891.91;5083461;28;20534;-67
2022/01/05 07:59:18;;;;;;;10.55;5.55;;;;;;;11.01;77.28;98907.97;5081797;28;20114;-67
2022/01/05 08:01:44;;;;;;;7.63;4.97;;;;;;;11.01;77.51;98907.97;5066833;28;20127;-69
2022/01/05 08:04:12;;;;;;;8.85;5.65;;;;;;;11.07;76.94;98912.63;5068259;28;20476;-68
2022/01/05 08:06:37;;;;;;;8.93;4.95;;;;;;;11.09;77.13;98910.63;5078888;28;20060;-69
2022/01/05 08:09:03;;;;;;;8.45;4.97;;;;;;;11.11;77.07;98903.25;5077474;28;20383;-68
2022/01/05 08:11:28;;;;;;;9.65;5.53;;;;;;;11.12;76.93;98904.06;5078319;28;20032;-68
2022/01/05 08:13:56;;;;;;;11.60;4.97;;;;;;;11.15;76.60;98909.94;5079148;28;20036;-69
2022/01/05 08:16:21;;;;;;;8.45;5.07;;;;;;;11.29;75.61;98925.31;5075153;28;20051;-69
2022/01/05 08:18:47;;;;;;;9.50;4.65;;;;;;;11.27;75.99;98919.28;5079935;28;20079;-69
2022/01/05 08:21:12;;;;;;;7.90;4.75;;;;;;;11.36;75.47;98923.59;5083740;28;20107;-69
2022/01/05 08:23:38;;;;;;;9.55;5.57;;;;;;;11.44;75.25;98920.06;5078914;28;20044;-69
2022/01/05 08:26:05;;;;;;;9.52;5.03;;;;;;;11.46;75.06;98924.25;5081481;28;20432;-69
2022/01/05 08:28:32;;;;;;;8.70;5.18;;;;;;;11.39;75.50;98904.47;5073085;28;20468;-69
2022/01/05 08:30:58;;;;;;;9.38;5.13;;;;;;;11.52;75.10;98923.53;5060216;28;20024;-69
2022/01/05 08:33:24;;;;;;;8.20;4.70;;;;;;;11.57;74.93;98919.50;5072943;28;20112;-69
2022/01/05 08:35:49;;;;;;;7.80;4.80;;;;;;;11.63;75.00;98924.19;5075974;28;20117;-69
2022/01/05 08:38:16;;;;;;;7.80;5.25;;;;;;;11.72;74.17;98917.78;5075725;28;20090;-69
2022/01/05 08:40:42;;;;;;;5.82;4.50;;;;;;;11.76;74.24;98916.41;5081330;28;20054;-68
2022/01/05 08:43:09;;;;;;;8.68;5.30;;;;;;;11.84;73.79;98919.91;5076307;28;20044;-68
2022/01/05 08:45:35;;;;;;;7.25;4.85;;;;;;;11.92;73.87;98932.44;5082754;28;20488;-69
2022/01/05 08:48:01;;;;;;;6.10;4.57;;;;;;;12.02;72.20;98917.75;5075192;28;20020;-68
2022/01/05 08:50:29;;;;;;;9.25;5.38;;;;;;;12.08;72.77;98918.91;5067741;28;20094;-69
2022/01/05 08:52:56;;;;;;;9.15;4.90;;;;;;;12.03;72.30;98892.56;5074436;28;20037;-69
2022/01/05 08:55:25;;;;;;;6.70;4.88;;;;;;;12.16;72.44;98905.41;5078696;28;20066;-69
2022/01/05 08:57:51;;;;;;;10.57;5.43;;;;;;;12.22;72.16;98916.28;5076095;28;20899;-69
2022/01/05 09:00:17;;;;;;;10.35;5.90;;;;;;;12.37;70.92;98916.31;5074184;28;20024;-69
2022/01/05 09:02:42;;;;;;;11.05;5.93;;;;;;;12.44;71.07;98909.22;5074606;28;20049;-69
2022/01/05 09:05:09;;;;;;;7.57;5.43;;;;;;;12.47;70.46;98900.78;5066267;28;20053;-69
2022/01/05 09:07:34;;;;;;;10.20;5.55;;;;;;;12.53;70.12;98906.28;5080930;28;20039;-69
2022/01/05 09:10:00;;;;;;;9.65;5.25;;;;;;;12.55;69.97;98900.72;5067274;28;20081;-68
2022/01/05 09:12:26;;;;;;;7.45;5.43;;;;;;;12.66;69.69;98903.81;5080435;28;20082;-69
2022/01/05 09:14:51;;;;;;;6.47;5.00;;;;;;;12.75;69.36;98888.44;5068359;28;20028;-69
2022/01/05 09:17:17;;;;;;;10.77;5.30;;;;;;;12.83;69.14;98893.75;5082865;28;20596;-68
2022/01/05 09:19:43;;;;;;;8.88;5.60;;;;;;;12.99;67.86;98896.28;5074943;28;20024;-69
2022/01/05 09:22:09;;;;;;;7.15;4.78;;;;;;;13.06;67.85;98894.53;5075313;28;20183;-69
2022/01/05 09:24:39;;;;;;;9.65;5.28;;;;;;;13.03;68.03;98882.28;5076540;28;20074;-68
2022/01/05 09:27:06;;;;;;;6.20;4.60;;;;;;;13.17;66.94;98886.84;5064578;28;20483;-69
2022/01/05 09:29:33;;;;;;;8.40;5.22;;;;;;;13.20;67.35;98889.16;5073045;28;20039;-70
2022/01/05 09:32:04;;;;;;;8.95;4.57;;;;;;;13.27;67.15;98890.09;5089478;28;20020;-69
2022/01/05 09:34:30;;;;;;;10.05;5.05;;;;;;;13.32;67.28;98895.72;5068407;28;20708;-69
2022/01/05 09:37:01;;;;;;;9.85;5.35;;;;;;;13.35;67.19;98895.34;5083979;28;20062;-69
2022/01/05 09:42:11;;;;;;;8.85;4.70;;;;;;;13.44;66.53;98877.25;5073208;28;20089;-69
2022/01/05 09:44:41;;;;;;;7.97;4.70;;;;;;;13.54;67.07;98872.38;5069521;28;20059;-69
2022/01/05 09:47:26;;;;;;;8.00;4.75;;;;;;;13.63;66.84;98884.72;5079803;28;20631;-69
2022/01/05 09:49:59;;;;;;;8.77;4.70;;;;;;;13.71;65.36;98877.38;5080153;28;20480;-69
2022/01/05 09:52:25;;;;;;;9.10;4.75;;;;;;;13.71;65.37;98863.09;5076871;28;20028;-69
2022/01/05 09:54:51;;;;;;;6.07;4.43;;;;;;;13.77;65.07;98866.88;5076494;28;20484;-69
2022/01/05 09:57:19;;;;;;;10.52;4.72;;;;;;;13.71;65.06;98866.59;5078606;28;20055;-68
2022/01/05 09:59:46;;;;;;;6.80;4.93;;;;;;;13.84;64.23;98881.25;5082875;28;20544;-69
2022/01/05 10:02:14;;;;;;;8.38;4.18;;;;;;;13.81;64.76;98870.84;5077347;28;20028;-69
2022/01/05 10:04:40;;;;;;;7.47;4.40;;;;;;;13.69;64.94;98859.72;5079064;28;20036;-69
2022/01/05 10:07:08;;;;;;;15.43;5.40;;;;;;;13.84;64.37;98860.53;5081484;28;20024;-73
2022/01/05 10:09:39;;;;;;;10.48;4.88;;;;;;;13.79;64.71;98865.66;5086113;28;20437;-73
2022/01/05 10:12:05;;;;;;;7.18;3.85;;;;;;;13.90;64.25;98870.56;5074327;28;20054;-74
2022/01/05 10:14:31;;;;;;;7.10;4.60;;;;;;;13.80;64.77;98861.91;5082122;28;20471;-73
2022/01/05 10:17:09;;;;;;;6.03;4.47;;;;;;;13.90;64.85;98885.88;5084036;28;20090;-74
2022/01/05 10:19:35;;;;;;;5.82;4.38;;;;;;;13.90;64.47;98881.34;5073916;28;20466;-73
2022/01/05 10:22:03;;;;;;;8.07;4.38;;;;;;;13.89;64.69;98876.13;5084100;28;20058;-73
2022/01/05 10:24:47;;;;;;;6.57;4.53;;;;;;;13.85;64.91;98874.81;5085683;28;20644;-73
2022/01/05 10:27:21;;;;;;;9.10;5.70;;;;;;;13.89;64.85;98874.25;5078969;28;20499;-73
2022/01/05 10:29:56;;;;;;;8.60;4.85;;;;;;;13.92;64.91;98868.50;5079537;28;20089;-74
2022/01/05 10:32:27;;;;;;;6.70;4.25;;;;;;;13.88;64.68;98875.28;5085413;28;20024;-73
2022/01/05 10:35:05;;;;;;;9.00;4.75;;;;;;;13.85;65.16;98864.88;5084994;28;20008;-73
2022/01/05 10:37:34;;;;;;;10.07;4.30;;;;;;;13.90;65.22;98878.66;5078435;28;20107;-73
2022/01/05 10:40:19;;;;;;;7.47;4.38;;;;;;;13.86;64.66;98866.56;5081036;28;20511;-73
2022/01/05 10:42:48;;;;;;;6.60;4.65;;;;;;;13.92;65.33;98873.03;5084242;28;20488;-73
2022/01/05 10:45:17;;;;;;;7.20;4.35;;;;;;;13.89;64.79;98860.78;5073265;28;20064;-73
2022/01/05 10:47:59;;;;;;;4.78;3.85;;;;;;;13.87;65.03;98868.25;5083789;28;20024;-73
2022/01/05 10:50:25;;;;;;;7.10;4.78;;;;;;;14.01;64.79;98870.03;5085647;28;20040;-74
2022/01/05 10:52:56;;;;;;;8.95;4.75;;;;;;;13.96;65.01;98866.25;5082944;28;20107;-73
2022/01/05 10:55:24;;;;;;;8.57;4.78;;;;;;;13.94;64.96;98868.28;5080190;28;20021;-73
2022/01/05 10:58:10;;;;;;;6.18;4.68;;;;;;;13.97;64.70;98868.75;5068922;28;20078;-73
2022/01/05 11:00:53;;;;;;;7.70;4.70;;;;;;;14.02;64.93;98871.69;5080497;28;20034;-73
2022/01/05 11:03:39;;;;;;;10.07;4.25;;;;;;;14.04;64.70;98866.97;5076495;28;20059;-74
2022/01/05 11:06:14;;;;;;;6.70;4.80;;;;;;;14.05;64.80;98881.25;5055495;28;20036;-73
2022/01/05 11:09:01;;;;;;;7.45;4.55;;;;;;;14.04;64.82;98864.28;5078992;28;20034;-74
2022/01/05 11:11:42;;;;;;;8.60;4.75;;;;;;;14.06;64.93;98864.88;5075321;28;20382;-74
2022/01/05 11:14:16;;;;;;;6.63;4.55;;;;;;;14.04;64.47;98858.03;5083242;28;20028;-74
2022/01/05 11:16:44;;;;;;;9.15;5.22;;;;;;;14.08;64.47;98865.56;5082679;28;20043;-73
2022/01/05 11:19:24;;;;;;;7.65;4.45;;;;;;;14.08;65.09;98860.16;5077913;28;20063;-73
2022/01/05 11:22:03;;;;;;;6.55;4.30;;;;;;;14.07;65.05;98863.03;5082648;28;20032;-72
2022/01/05 11:24:51;;;;;;;6.63;4.32;;;;;;;14.12;64.99;98868.72;5077921;28;20043;-73
2022/01/05 11:27:26;;;;;;;7.85;4.30;;;;;;;14.04;65.35;98850.78;5074287;28;20028;-73
2022/01/05 11:29:52;;;;;;;8.77;4.70;;;;;;;14.07;65.45;98855.81;5071158;28;20039;-73
2022/01/05 11:32:20;;;;;;;7.80;4.95;;;;;;;14.04;65.27;98858.03;5071948;28;20020;-73
2022/01/05 11:34:47;;;;;;;10.15;5.35;;;;;;;14.09;65.48;98861.00;5083172;28;20392;-74